sensor_id;sensor_type;location;lat;lon;timestamp;temperature;humidity
19085;DHT22;9675;51.538;6.728;2023-04-07T00:01:55;10.50;99.90
19085;DHT22;9675;51.538;6.728;2023-04-07T00:04:22;10.50;99.90
19085;DHT22;9675;51.538;6.728;2023-04-07T00:06:49;10.50;99.90
19085;DHT22;9675;51.538;6.728;2023-04-07T00:09:16;10.50;99.90
19085;DHT22;9675;51.538;6.728;2023-04-07T00:11:43;10.40;99.90
19085;DHT22;9675;51.538;6.728;2023-04-07T00:14:12;10.40;99.90
19085;DHT22;9675;51.538;6.728;2023-04-07T00:16:39;10.40;99.90
19085;DHT22;9675;51.538;6.728;2023-04-07T00:19:06;10.40;99.90
19085;DHT22;9675;51.538;6.728;2023-04-07T00:21:33;10.40;99.90
19085;DHT22;9675;51.538;6.728;2023-04-07T00:24:00;10.40;99.90
19085;DHT22;9675;51.538;6.728;2023-04-07T00:26:27;10.30;99.90
19085;DHT22;9675;51.538;6.728;2023-04-07T00:28:57;10.30;99.90
19085;DHT22;9675;51.538;6.728;2023-04-07T00:31:25;10.40;99.90
19085;DHT22;9675;51.538;6.728;2023-04-07T00:33:52;10.40;99.90
19085;DHT22;9675;51.538;6.728;2023-04-07T00:36:20;10.40;99.90
19085;DHT22;9675;51.538;6.728;2023-04-07T00:38:47;10.40;99.90
19085;DHT22;9675;51.538;6.728;2023-04-07T00:41:14;10.40;99.90
19085;DHT22;9675;51.538;6.728;2023-04-07T00:43:41;10.40;99.90
19085;DHT22;9675;51.538;6.728;2023-04-07T00:46:08;10.40;99.90
19085;DHT22;9675;51.538;6.728;2023-04-07T00:48:37;10.30;99.90
19085;DHT22;9675;51.538;6.728;2023-04-07T00:51:04;10.40;99.90
19085;DHT22;9675;51.538;6.728;2023-04-07T00:53:32;10.40;99.90
19085;DHT22;9675;51.538;6.728;2023-04-07T00:55:59;10.40;99.90
19085;DHT22;9675;51.538;6.728;2023-04-07T00:58:26;10.30;99.90
19085;DHT22;9675;51.538;6.728;2023-04-07T01:01:00;10.40;99.90
19085;DHT22;9675;51.538;6.728;2023-04-07T01:03:35;10.40;99.90
19085;DHT22;9675;51.538;6.728;2023-04-07T01:06:10;10.40;99.90
19085;DHT22;9675;51.538;6.728;2023-04-07T01:08:48;10.40;99.90
19085;DHT22;9675;51.538;6.728;2023-04-07T01:11:23;10.40;99.90
19085;DHT22;9675;51.538;6.728;2023-04-07T01:13:53;10.40;99.90
19085;DHT22;9675;51.538;6.728;2023-04-07T01:16:23;10.40;99.90
19085;DHT22;9675;51.538;6.728;2023-04-07T01:19:03;10.40;99.90
19085;DHT22;9675;51.538;6.728;2023-04-07T01:21:39;10.40;99.90
19085;DHT22;9675;51.538;6.728;2023-04-07T01:24:26;10.40;99.90
19085;DHT22;9675;51.538;6.728;2023-04-07T01:27:35;10.40;99.90
19085;DHT22;9675;51.538;6.728;2023-04-07T01:30:11;10.40;99.90
19085;DHT22;9675;51.538;6.728;2023-04-07T01:32:40;10.40;99.90
19085;DHT22;9675;51.538;6.728;2023-04-07T01:35:12;10.40;99.90
19085;DHT22;9675;51.538;6.728;2023-04-07T01:37:40;10.40;99.90
19085;DHT22;9675;51.538;6.728;2023-04-07T01:40:11;10.40;99.90
19085;DHT22;9675;51.538;6.728;2023-04-07T01:42:40;10.40;99.90
19085;DHT22;9675;51.538;6.728;2023-04-07T01:45:10;10.40;99.90
19085;DHT22;9675;51.538;6.728;2023-04-07T01:47:38;10.40;99.90
19085;DHT22;9675;51.538;6.728;2023-04-07T01:50:07;10.40;99.90
19085;DHT22;9675;51.538;6.728;2023-04-07T01:52:35;10.40;99.90
19085;DHT22;9675;51.538;6.728;2023-04-07T01:55:04;10.40;99.90
19085;DHT22;9675;51.538;6.728;2023-04-07T01:57:32;10.40;99.90
19085;DHT22;9675;51.538;6.728;2023-04-07T01:59:59;10.40;99.90
19085;DHT22;9675;51.538;6.728;2023-04-07T02:02:27;10.40;99.90
19085;DHT22;9675;51.538;6.728;2023-04-07T02:04:56;10.40;99.90
19085;DHT22;9675;51.538;6.728;2023-04-07T02:07:31;10.40;99.90
19085;DHT22;9675;51.538;6.728;2023-04-07T02:10:07;10.40;99.90
19085;DHT22;9675;51.538;6.728;2023-04-07T02:12:38;10.40;99.90
19085;DHT22;9675;51.538;6.728;2023-04-07T02:15:09;10.40;99.90
19085;DHT22;9675;51.538;6.728;2023-04-07T02:17:42;10.40;99.90
19085;DHT22;9675;51.538;6.728;2023-04-07T02:20:13;10.40;99.90
19085;DHT22;9675;51.538;6.728;2023-04-07T02:22:42;10.40;99.90
19085;DHT22;9675;51.538;6.728;2023-04-07T02:25:23;10.40;99.90
19085;DHT22;9675;51.538;6.728;2023-04-07T02:27:51;10.40;99.90
19085;DHT22;9675;51.538;6.728;2023-04-07T02:30:19;10.40;99.90
19085;DHT22;9675;51.538;6.728;2023-04-07T02:32:48;10.40;99.90
19085;DHT22;9675;51.538;6.728;2023-04-07T02:35:15;10.40;99.90
19085;DHT22;9675;51.538;6.728;2023-04-07T02:37:43;10.40;99.90
19085;DHT22;9675;51.538;6.728;2023-04-07T02:40:11;10.40;99.90
19085;DHT22;9675;51.538;6.728;2023-04-07T02:42:38;10.30;99.90
19085;DHT22;9675;51.538;6.728;2023-04-07T02:45:07;10.40;99.90
19085;DHT22;9675;51.538;6.728;2023-04-07T02:47:36;10.40;99.90
19085;DHT22;9675;51.538;6.728;2023-04-07T02:50:06;10.40;99.90
19085;DHT22;9675;51.538;6.728;2023-04-07T02:52:34;10.40;99.90
19085;DHT22;9675;51.538;6.728;2023-04-07T02:55:01;10.40;99.90
19085;DHT22;9675;51.538;6.728;2023-04-07T02:57:28;10.40;99.90
19085;DHT22;9675;51.538;6.728;2023-04-07T02:59:55;10.40;99.90
19085;DHT22;9675;51.538;6.728;2023-04-07T03:02:22;10.30;99.90
19085;DHT22;9675;51.538;6.728;2023-04-07T03:04:50;10.30;99.90
19085;DHT22;9675;51.538;6.728;2023-04-07T03:07:19;10.40;99.90
19085;DHT22;9675;51.538;6.728;2023-04-07T03:09:46;10.30;99.90
19085;DHT22;9675;51.538;6.728;2023-04-07T03:12:13;10.30;99.90
19085;DHT22;9675;51.538;6.728;2023-04-07T03:14:40;10.30;99.90
19085;DHT22;9675;51.538;6.728;2023-04-07T03:17:07;10.30;99.90
19085;DHT22;9675;51.538;6.728;2023-04-07T03:19:34;10.30;99.90
19085;DHT22;9675;51.538;6.728;2023-04-07T03:22:01;10.30;99.90
19085;DHT22;9675;51.538;6.728;2023-04-07T03:24:29;10.30;99.90
19085;DHT22;9675;51.538;6.728;2023-04-07T03:26:56;10.30;99.90
19085;DHT22;9675;51.538;6.728;2023-04-07T03:29:24;10.30;99.90
19085;DHT22;9675;51.538;6.728;2023-04-07T03:31:51;10.30;99.90
19085;DHT22;9675;51.538;6.728;2023-04-07T03:34:18;10.30;99.90
19085;DHT22;9675;51.538;6.728;2023-04-07T03:36:45;10.30;99.90
19085;DHT22;9675;51.538;6.728;2023-04-07T03:39:12;10.30;99.90
19085;DHT22;9675;51.538;6.728;2023-04-07T03:41:40;10.30;99.90
19085;DHT22;9675;51.538;6.728;2023-04-07T03:44:07;10.30;99.90
19085;DHT22;9675;51.538;6.728;2023-04-07T03:46:34;10.30;99.90
19085;DHT22;9675;51.538;6.728;2023-04-07T03:49:01;10.30;99.90
19085;DHT22;9675;51.538;6.728;2023-04-07T03:51:28;10.30;99.90
19085;DHT22;9675;51.538;6.728;2023-04-07T03:53:55;10.30;99.90
19085;DHT22;9675;51.538;6.728;2023-04-07T03:56:22;10.30;99.90
19085;DHT22;9675;51.538;6.728;2023-04-07T03:58:51;10.30;99.90
19085;DHT22;9675;51.538;6.728;2023-04-07T04:01:18;10.30;99.90
19085;DHT22;9675;51.538;6.728;2023-04-07T04:03:45;10.30;99.90
19085;DHT22;9675;51.538;6.728;2023-04-07T04:06:12;10.30;99.90
19085;DHT22;9675;51.538;6.728;2023-04-07T04:08:39;10.30;99.90
19085;DHT22;9675;51.538;6.728;2023-04-07T04:11:06;10.30;99.90
19085;DHT22;9675;51.538;6.728;2023-04-07T04:13:34;10.30;99.90
19085;DHT22;9675;51.538;6.728;2023-04-07T04:16:02;10.20;99.90
19085;DHT22;9675;51.538;6.728;2023-04-07T04:18:29;10.30;99.90
19085;DHT22;9675;51.538;6.728;2023-04-07T04:20:57;10.30;99.90
19085;DHT22;9675;51.538;6.728;2023-04-07T04:23:24;10.30;99.90
19085;DHT22;9675;51.538;6.728;2023-04-07T04:25:51;10.30;99.90
19085;DHT22;9675;51.538;6.728;2023-04-07T04:28:18;10.20;99.90
19085;DHT22;9675;51.538;6.728;2023-04-07T04:30:45;10.20;99.90
19085;DHT22;9675;51.538;6.728;2023-04-07T04:33:14;10.20;99.90
19085;DHT22;9675;51.538;6.728;2023-04-07T04:35:41;10.20;99.90
19085;DHT22;9675;51.538;6.728;2023-04-07T04:38:08;10.30;99.90
19085;DHT22;9675;51.538;6.728;2023-04-07T04:40:36;10.20;99.90
19085;DHT22;9675;51.538;6.728;2023-04-07T04:43:03;10.20;99.90
19085;DHT22;9675;51.538;6.728;2023-04-07T04:45:31;10.20;99.90
19085;DHT22;9675;51.538;6.728;2023-04-07T04:47:58;10.20;99.90
19085;DHT22;9675;51.538;6.728;2023-04-07T04:50:26;10.20;99.90
19085;DHT22;9675;51.538;6.728;2023-04-07T04:52:53;10.30;99.90
19085;DHT22;9675;51.538;6.728;2023-04-07T04:55:21;10.20;99.90
19085;DHT22;9675;51.538;6.728;2023-04-07T04:57:48;10.30;99.90
19085;DHT22;9675;51.538;6.728;2023-04-07T05:00:15;10.20;99.90
19085;DHT22;9675;51.538;6.728;2023-04-07T05:02:43;10.20;99.90
19085;DHT22;9675;51.538;6.728;2023-04-07T05:05:11;10.20;99.90
19085;DHT22;9675;51.538;6.728;2023-04-07T05:07:39;10.20;99.90
19085;DHT22;9675;51.538;6.728;2023-04-07T05:10:07;10.20;99.90
19085;DHT22;9675;51.538;6.728;2023-04-07T05:12:35;10.20;99.90
19085;DHT22;9675;51.538;6.728;2023-04-07T05:15:02;10.20;99.90
19085;DHT22;9675;51.538;6.728;2023-04-07T05:17:30;10.20;99.90
19085;DHT22;9675;51.538;6.728;2023-04-07T05:19:57;10.20;99.90
19085;DHT22;9675;51.538;6.728;2023-04-07T05:22:24;10.20;99.90
19085;DHT22;9675;51.538;6.728;2023-04-07T05:24:52;10.20;99.90
19085;DHT22;9675;51.538;6.728;2023-04-07T05:27:19;10.20;99.90
19085;DHT22;9675;51.538;6.728;2023-04-07T05:29:46;10.20;99.90
19085;DHT22;9675;51.538;6.728;2023-04-07T05:32:13;10.20;99.90
19085;DHT22;9675;51.538;6.728;2023-04-07T05:34:41;10.20;99.90
19085;DHT22;9675;51.538;6.728;2023-04-07T05:37:08;10.20;99.90
19085;DHT22;9675;51.538;6.728;2023-04-07T05:39:36;10.20;99.90
19085;DHT22;9675;51.538;6.728;2023-04-07T05:42:04;10.20;99.90
19085;DHT22;9675;51.538;6.728;2023-04-07T05:44:32;10.20;99.90
19085;DHT22;9675;51.538;6.728;2023-04-07T05:46:59;10.20;99.90
19085;DHT22;9675;51.538;6.728;2023-04-07T05:49:26;10.20;99.90
19085;DHT22;9675;51.538;6.728;2023-04-07T05:51:53;10.20;99.90
19085;DHT22;9675;51.538;6.728;2023-04-07T05:54:20;10.20;99.90
19085;DHT22;9675;51.538;6.728;2023-04-07T05:56:47;10.20;99.90
19085;DHT22;9675;51.538;6.728;2023-04-07T05:59:15;10.20;99.90
19085;DHT22;9675;51.538;6.728;2023-04-07T06:01:42;10.20;99.90
19085;DHT22;9675;51.538;6.728;2023-04-07T06:04:09;10.10;99.90
19085;DHT22;9675;51.538;6.728;2023-04-07T06:06:39;10.10;99.90
19085;DHT22;9675;51.538;6.728;2023-04-07T06:09:06;10.10;99.90
19085;DHT22;9675;51.538;6.728;2023-04-07T06:11:33;10.10;99.90
19085;DHT22;9675;51.538;6.728;2023-04-07T06:14:01;10.10;99.90
19085;DHT22;9675;51.538;6.728;2023-04-07T06:16:29;10.10;99.90
19085;DHT22;9675;51.538;6.728;2023-04-07T06:18:56;10.10;99.90
19085;DHT22;9675;51.538;6.728;2023-04-07T06:21:23;10.10;99.90
19085;DHT22;9675;51.538;6.728;2023-04-07T06:23:51;10.10;99.90
19085;DHT22;9675;51.538;6.728;2023-04-07T06:26:18;10.10;99.90
19085;DHT22;9675;51.538;6.728;2023-04-07T06:28:46;10.10;99.90
19085;DHT22;9675;51.538;6.728;2023-04-07T06:31:13;10.10;99.90
19085;DHT22;9675;51.538;6.728;2023-04-07T06:33:42;10.10;99.90
19085;DHT22;9675;51.538;6.728;2023-04-07T06:36:09;10.20;99.90
19085;DHT22;9675;51.538;6.728;2023-04-07T06:38:37;10.20;99.90
19085;DHT22;9675;51.538;6.728;2023-04-07T06:41:04;10.10;99.90
19085;DHT22;9675;51.538;6.728;2023-04-07T06:43:33;10.10;99.90
19085;DHT22;9675;51.538;6.728;2023-04-07T06:46:00;10.10;99.90
19085;DHT22;9675;51.538;6.728;2023-04-07T06:48:27;10.10;99.90
19085;DHT22;9675;51.538;6.728;2023-04-07T06:50:55;10.10;99.90
19085;DHT22;9675;51.538;6.728;2023-04-07T06:53:22;10.10;99.90
19085;DHT22;9675;51.538;6.728;2023-04-07T06:55:49;10.10;99.90
19085;DHT22;9675;51.538;6.728;2023-04-07T06:58:16;10.10;99.90
19085;DHT22;9675;51.538;6.728;2023-04-07T07:00:43;10.10;99.90
19085;DHT22;9675;51.538;6.728;2023-04-07T07:03:10;10.10;99.90
19085;DHT22;9675;51.538;6.728;2023-04-07T07:05:37;10.10;99.90
19085;DHT22;9675;51.538;6.728;2023-04-07T07:08:06;10.20;99.90
19085;DHT22;9675;51.538;6.728;2023-04-07T07:10:33;10.10;99.90
19085;DHT22;9675;51.538;6.728;2023-04-07T07:13:00;10.20;99.90
19085;DHT22;9675;51.538;6.728;2023-04-07T07:15:27;10.20;99.90
19085;DHT22;9675;51.538;6.728;2023-04-07T07:17:54;10.20;99.90
19085;DHT22;9675;51.538;6.728;2023-04-07T07:20:21;10.10;99.90
19085;DHT22;9675;51.538;6.728;2023-04-07T07:22:50;10.10;99.90
19085;DHT22;9675;51.538;6.728;2023-04-07T07:25:18;10.20;99.90
19085;DHT22;9675;51.538;6.728;2023-04-07T07:27:45;10.20;99.90
19085;DHT22;9675;51.538;6.728;2023-04-07T07:30:16;10.20;99.90
19085;DHT22;9675;51.538;6.728;2023-04-07T07:32:43;10.20;99.90
19085;DHT22;9675;51.538;6.728;2023-04-07T07:35:10;10.20;99.90
19085;DHT22;9675;51.538;6.728;2023-04-07T07:37:38;10.20;99.90
19085;DHT22;9675;51.538;6.728;2023-04-07T07:40:06;10.20;99.90
19085;DHT22;9675;51.538;6.728;2023-04-07T07:42:53;10.20;99.90
19085;DHT22;9675;51.538;6.728;2023-04-07T07:45:27;10.20;99.90
19085;DHT22;9675;51.538;6.728;2023-04-07T07:47:55;10.20;99.90
19085;DHT22;9675;51.538;6.728;2023-04-07T07:50:22;10.20;99.90
19085;DHT22;9675;51.538;6.728;2023-04-07T07:52:50;10.20;99.90
19085;DHT22;9675;51.538;6.728;2023-04-07T07:55:19;10.20;99.90
19085;DHT22;9675;51.538;6.728;2023-04-07T07:57:50;10.20;99.90
19085;DHT22;9675;51.538;6.728;2023-04-07T08:00:20;10.20;99.90
19085;DHT22;9675;51.538;6.728;2023-04-07T08:02:48;10.20;99.90
19085;DHT22;9675;51.538;6.728;2023-04-07T08:05:25;10.20;99.90
19085;DHT22;9675;51.538;6.728;2023-04-07T08:07:53;10.20;99.90
19085;DHT22;9675;51.538;6.728;2023-04-07T08:10:21;10.20;99.90
19085;DHT22;9675;51.538;6.728;2023-04-07T08:12:52;10.20;99.90
19085;DHT22;9675;51.538;6.728;2023-04-07T08:15:21;10.20;99.90
19085;DHT22;9675;51.538;6.728;2023-04-07T08:17:48;10.20;99.90
19085;DHT22;9675;51.538;6.728;2023-04-07T08:20:15;10.20;99.90
19085;DHT22;9675;51.538;6.728;2023-04-07T08:22:48;10.20;99.90
19085;DHT22;9675;51.538;6.728;2023-04-07T08:25:21;10.20;99.90
19085;DHT22;9675;51.538;6.728;2023-04-07T08:27:54;10.30;99.90
19085;DHT22;9675;51.538;6.728;2023-04-07T08:30:24;10.30;99.90
19085;DHT22;9675;51.538;6.728;2023-04-07T08:32:54;10.30;99.90
19085;DHT22;9675;51.538;6.728;2023-04-07T08:35:22;10.30;99.90
19085;DHT22;9675;51.538;6.728;2023-04-07T08:38:20;10.30;99.90
19085;DHT22;9675;51.538;6.728;2023-04-07T08:40:42;10.30;99.90
19085;DHT22;9675;51.538;6.728;2023-04-07T08:43:12;10.30;99.90
19085;DHT22;9675;51.538;6.728;2023-04-07T08:45:45;10.30;99.90
19085;DHT22;9675;51.538;6.728;2023-04-07T08:48:15;10.30;99.90
19085;DHT22;9675;51.538;6.728;2023-04-07T08:50:44;10.30;99.90
19085;DHT22;9675;51.538;6.728;2023-04-07T08:53:13;10.30;99.90
19085;DHT22;9675;51.538;6.728;2023-04-07T08:55:45;10.30;99.90
19085;DHT22;9675;51.538;6.728;2023-04-07T08:58:13;10.30;99.90
19085;DHT22;9675;51.538;6.728;2023-04-07T09:00:43;10.30;99.90
19085;DHT22;9675;51.538;6.728;2023-04-07T09:03:14;10.30;99.90
19085;DHT22;9675;51.538;6.728;2023-04-07T09:05:43;10.30;99.90
19085;DHT22;9675;51.538;6.728;2023-04-07T09:08:11;10.30;99.90
19085;DHT22;9675;51.538;6.728;2023-04-07T09:10:38;10.30;99.90
19085;DHT22;9675;51.538;6.728;2023-04-07T09:13:06;10.30;99.90
19085;DHT22;9675;51.538;6.728;2023-04-07T09:15:33;10.30;99.90
19085;DHT22;9675;51.538;6.728;2023-04-07T09:18:02;10.30;99.90
19085;DHT22;9675;51.538;6.728;2023-04-07T09:20:56;10.30;99.90
19085;DHT22;9675;51.538;6.728;2023-04-07T09:23:27;10.30;99.90
19085;DHT22;9675;51.538;6.728;2023-04-07T09:25:56;10.30;99.90
19085;DHT22;9675;51.538;6.728;2023-04-07T09:28:38;10.30;99.90
19085;DHT22;9675;51.538;6.728;2023-04-07T09:31:07;10.40;99.90
19085;DHT22;9675;51.538;6.728;2023-04-07T09:33:35;10.30;99.90
19085;DHT22;9675;51.538;6.728;2023-04-07T09:36:04;10.40;99.90
19085;DHT22;9675;51.538;6.728;2023-04-07T09:38:32;10.40;99.90
19085;DHT22;9675;51.538;6.728;2023-04-07T09:41:08;10.40;99.90
19085;DHT22;9675;51.538;6.728;2023-04-07T09:43:37;10.30;99.90
19085;DHT22;9675;51.538;6.728;2023-04-07T09:46:13;10.40;99.90
19085;DHT22;9675;51.538;6.728;2023-04-07T09:48:42;10.40;99.90
19085;DHT22;9675;51.538;6.728;2023-04-07T09:51:12;10.40;99.90
19085;DHT22;9675;51.538;6.728;2023-04-07T09:53:42;10.40;99.90
19085;DHT22;9675;51.538;6.728;2023-04-07T09:56:11;10.40;99.90
19085;DHT22;9675;51.538;6.728;2023-04-07T09:58:41;10.40;99.90
19085;DHT22;9675;51.538;6.728;2023-04-07T10:01:10;10.40;99.90
19085;DHT22;9675;51.538;6.728;2023-04-07T10:03:38;10.40;99.90
19085;DHT22;9675;51.538;6.728;2023-04-07T10:06:07;10.40;99.90
19085;DHT22;9675;51.538;6.728;2023-04-07T10:08:36;10.40;99.90
19085;DHT22;9675;51.538;6.728;2023-04-07T10:11:05;10.50;99.90
19085;DHT22;9675;51.538;6.728;2023-04-07T10:13:33;10.50;99.90
19085;DHT22;9675;51.538;6.728;2023-04-07T10:16:02;10.50;99.90
19085;DHT22;9675;51.538;6.728;2023-04-07T10:18:32;10.50;99.90
19085;DHT22;9675;51.538;6.728;2023-04-07T10:21:01;10.50;99.90
19085;DHT22;9675;51.538;6.728;2023-04-07T10:23:42;10.50;99.90
19085;DHT22;9675;51.538;6.728;2023-04-07T10:26:20;10.50;99.90
19085;DHT22;9675;51.538;6.728;2023-04-07T10:28:56;10.50;99.90
19085;DHT22;9675;51.538;6.728;2023-04-07T10:31:26;10.60;99.90
19085;DHT22;9675;51.538;6.728;2023-04-07T10:33:53;10.50;99.90
19085;DHT22;9675;51.538;6.728;2023-04-07T10:36:21;10.50;99.90
19085;DHT22;9675;51.538;6.728;2023-04-07T10:39:20;10.60;99.90
19085;DHT22;9675;51.538;6.728;2023-04-07T10:41:48;10.60;99.90
19085;DHT22;9675;51.538;6.728;2023-04-07T10:44:46;10.60;99.90
19085;DHT22;9675;51.538;6.728;2023-04-07T10:47:17;10.60;99.90
19085;DHT22;9675;51.538;6.728;2023-04-07T10:50:19;10.60;99.90
19085;DHT22;9675;51.538;6.728;2023-04-07T10:53:03;10.60;99.90
19085;DHT22;9675;51.538;6.728;2023-04-07T10:55:35;10.60;99.90
19085;DHT22;9675;51.538;6.728;2023-04-07T10:58:14;10.60;99.90
19085;DHT22;9675;51.538;6.728;2023-04-07T11:01:18;10.60;99.90
19085;DHT22;9675;51.538;6.728;2023-04-07T11:03:56;10.70;99.90
19085;DHT22;9675;51.538;6.728;2023-04-07T11:06:25;10.70;99.90
19085;DHT22;9675;51.538;6.728;2023-04-07T11:08:53;10.70;99.90
19085;DHT22;9675;51.538;6.728;2023-04-07T11:11:36;10.70;99.90
19085;DHT22;9675;51.538;6.728;2023-04-07T11:14:05;10.80;99.90
19085;DHT22;9675;51.538;6.728;2023-04-07T11:16:40;10.80;99.90
19085;DHT22;9675;51.538;6.728;2023-04-07T11:19:10;10.80;99.90
19085;DHT22;9675;51.538;6.728;2023-04-07T11:21:37;10.80;99.90
19085;DHT22;9675;51.538;6.728;2023-04-07T11:24:05;10.80;99.90
19085;DHT22;9675;51.538;6.728;2023-04-07T11:26:40;10.80;99.90
19085;DHT22;9675;51.538;6.728;2023-04-07T11:29:08;10.80;99.90
19085;DHT22;9675;51.538;6.728;2023-04-07T11:31:37;10.80;99.90
19085;DHT22;9675;51.538;6.728;2023-04-07T11:34:04;10.90;99.90
19085;DHT22;9675;51.538;6.728;2023-04-07T11:36:33;10.90;99.90
19085;DHT22;9675;51.538;6.728;2023-04-07T11:39:01;10.90;99.90
19085;DHT22;9675;51.538;6.728;2023-04-07T11:41:30;10.90;99.90
19085;DHT22;9675;51.538;6.728;2023-04-07T11:44:07;10.90;99.90
19085;DHT22;9675;51.538;6.728;2023-04-07T11:46:36;11.00;99.90
19085;DHT22;9675;51.538;6.728;2023-04-07T11:49:10;11.00;99.90
19085;DHT22;9675;51.538;6.728;2023-04-07T11:51:39;11.00;99.90
19085;DHT22;9675;51.538;6.728;2023-04-07T11:54:06;11.00;99.90
19085;DHT22;9675;51.538;6.728;2023-04-07T11:56:42;11.00;99.90
19085;DHT22;9675;51.538;6.728;2023-04-07T11:59:19;11.00;99.90
19085;DHT22;9675;51.538;6.728;2023-04-07T12:01:48;11.00;99.90
19085;DHT22;9675;51.538;6.728;2023-04-07T12:04:17;11.00;99.90
19085;DHT22;9675;51.538;6.728;2023-04-07T12:06:46;11.10;99.90
19085;DHT22;9675;51.538;6.728;2023-04-07T12:09:28;11.10;99.90
19085;DHT22;9675;51.538;6.728;2023-04-07T12:11:57;11.10;99.90
19085;DHT22;9675;51.538;6.728;2023-04-07T12:14:26;11.10;99.90
19085;DHT22;9675;51.538;6.728;2023-04-07T12:16:53;11.10;99.90
19085;DHT22;9675;51.538;6.728;2023-04-07T12:19:22;11.10;99.90
19085;DHT22;9675;51.538;6.728;2023-04-07T12:21:49;11.10;99.90
19085;DHT22;9675;51.538;6.728;2023-04-07T12:24:16;11.10;99.90
19085;DHT22;9675;51.538;6.728;2023-04-07T12:26:43;11.10;99.90
19085;DHT22;9675;51.538;6.728;2023-04-07T12:29:11;11.10;99.90
19085;DHT22;9675;51.538;6.728;2023-04-07T12:31:39;11.10;99.90
19085;DHT22;9675;51.538;6.728;2023-04-07T12:34:06;11.10;99.90
19085;DHT22;9675;51.538;6.728;2023-04-07T12:36:34;11.10;99.90
19085;DHT22;9675;51.538;6.728;2023-04-07T12:39:01;11.20;99.90
19085;DHT22;9675;51.538;6.728;2023-04-07T12:41:28;11.20;99.90
19085;DHT22;9675;51.538;6.728;2023-04-07T12:43:55;11.20;99.90
19085;DHT22;9675;51.538;6.728;2023-04-07T12:46:22;11.20;99.90
19085;DHT22;9675;51.538;6.728;2023-04-07T12:48:51;11.20;99.90
19085;DHT22;9675;51.538;6.728;2023-04-07T12:51:19;11.20;99.90
19085;DHT22;9675;51.538;6.728;2023-04-07T12:53:46;11.20;99.90
19085;DHT22;9675;51.538;6.728;2023-04-07T12:56:13;11.20;99.90
19085;DHT22;9675;51.538;6.728;2023-04-07T12:58:40;11.20;99.90
19085;DHT22;9675;51.538;6.728;2023-04-07T13:01:07;11.20;99.90
19085;DHT22;9675;51.538;6.728;2023-04-07T13:03:35;11.30;99.90
19085;DHT22;9675;51.538;6.728;2023-04-07T13:06:04;11.20;99.90
19085;DHT22;9675;51.538;6.728;2023-04-07T13:08:35;11.30;99.90
19085;DHT22;9675;51.538;6.728;2023-04-07T13:11:02;11.30;99.90
19085;DHT22;9675;51.538;6.728;2023-04-07T13:13:29;11.30;99.90
19085;DHT22;9675;51.538;6.728;2023-04-07T13:15:57;11.30;99.90
19085;DHT22;9675;51.538;6.728;2023-04-07T13:18:24;11.30;99.90
19085;DHT22;9675;51.538;6.728;2023-04-07T13:20:51;11.30;99.90
19085;DHT22;9675;51.538;6.728;2023-04-07T13:23:20;11.30;99.90
19085;DHT22;9675;51.538;6.728;2023-04-07T13:25:47;11.40;99.90
19085;DHT22;9675;51.538;6.728;2023-04-07T13:28:14;11.40;99.90
19085;DHT22;9675;51.538;6.728;2023-04-07T13:30:42;11.40;99.90
19085;DHT22;9675;51.538;6.728;2023-04-07T13:33:09;11.40;99.90
19085;DHT22;9675;51.538;6.728;2023-04-07T13:35:37;11.40;99.90
19085;DHT22;9675;51.538;6.728;2023-04-07T13:38:04;11.40;99.90
19085;DHT22;9675;51.538;6.728;2023-04-07T13:40:32;11.40;99.90
19085;DHT22;9675;51.538;6.728;2023-04-07T13:42:59;11.40;99.90
19085;DHT22;9675;51.538;6.728;2023-04-07T13:45:26;11.40;99.90
19085;DHT22;9675;51.538;6.728;2023-04-07T13:47:53;11.50;99.90
19085;DHT22;9675;51.538;6.728;2023-04-07T13:50:20;11.50;99.90
19085;DHT22;9675;51.538;6.728;2023-04-07T13:52:47;11.50;99.90
19085;DHT22;9675;51.538;6.728;2023-04-07T13:55:14;11.50;99.90
19085;DHT22;9675;51.538;6.728;2023-04-07T13:57:46;11.50;99.90
19085;DHT22;9675;51.538;6.728;2023-04-07T14:00:14;11.50;99.90
19085;DHT22;9675;51.538;6.728;2023-04-07T14:02:41;11.40;99.90
19085;DHT22;9675;51.538;6.728;2023-04-07T14:05:10;11.40;99.90
19085;DHT22;9675;51.538;6.728;2023-04-07T14:07:37;11.40;99.90
19085;DHT22;9675;51.538;6.728;2023-04-07T14:10:04;11.40;99.90
19085;DHT22;9675;51.538;6.728;2023-04-07T14:12:32;11.40;99.90
19085;DHT22;9675;51.538;6.728;2023-04-07T14:15:01;11.40;99.90
19085;DHT22;9675;51.538;6.728;2023-04-07T14:17:28;11.40;99.90
19085;DHT22;9675;51.538;6.728;2023-04-07T14:19:56;11.40;99.90
19085;DHT22;9675;51.538;6.728;2023-04-07T14:22:23;11.40;99.90
19085;DHT22;9675;51.538;6.728;2023-04-07T14:24:50;11.40;99.90
19085;DHT22;9675;51.538;6.728;2023-04-07T14:27:17;11.40;99.90
19085;DHT22;9675;51.538;6.728;2023-04-07T14:29:45;11.40;99.90
19085;DHT22;9675;51.538;6.728;2023-04-07T14:32:14;11.40;99.90
19085;DHT22;9675;51.538;6.728;2023-04-07T14:34:41;11.40;99.90
19085;DHT22;9675;51.538;6.728;2023-04-07T14:37:08;11.40;99.90
19085;DHT22;9675;51.538;6.728;2023-04-07T14:39:35;11.40;99.90
19085;DHT22;9675;51.538;6.728;2023-04-07T14:42:03;11.40;99.90
19085;DHT22;9675;51.538;6.728;2023-04-07T14:44:30;11.40;99.90
19085;DHT22;9675;51.538;6.728;2023-04-07T14:46:57;11.30;99.90
19085;DHT22;9675;51.538;6.728;2023-04-07T14:49:26;11.30;99.90
19085;DHT22;9675;51.538;6.728;2023-04-07T14:51:53;11.40;99.90
19085;DHT22;9675;51.538;6.728;2023-04-07T14:54:20;11.40;99.90
19085;DHT22;9675;51.538;6.728;2023-04-07T14:56:47;11.30;99.90
19085;DHT22;9675;51.538;6.728;2023-04-07T14:59:15;11.40;99.90
19085;DHT22;9675;51.538;6.728;2023-04-07T15:01:42;11.30;99.90
19085;DHT22;9675;51.538;6.728;2023-04-07T15:04:09;11.30;99.90
19085;DHT22;9675;51.538;6.728;2023-04-07T15:06:39;11.30;99.90
19085;DHT22;9675;51.538;6.728;2023-04-07T15:09:07;11.30;99.90
19085;DHT22;9675;51.538;6.728;2023-04-07T15:11:40;11.30;99.90
19085;DHT22;9675;51.538;6.728;2023-04-07T15:14:07;11.30;99.90
19085;DHT22;9675;51.538;6.728;2023-04-07T15:16:34;11.30;99.90
19085;DHT22;9675;51.538;6.728;2023-04-07T15:19:01;11.30;99.90
19085;DHT22;9675;51.538;6.728;2023-04-07T15:21:28;11.30;99.90
19085;DHT22;9675;51.538;6.728;2023-04-07T15:23:57;11.30;99.90
19085;DHT22;9675;51.538;6.728;2023-04-07T15:26:24;11.30;99.90
19085;DHT22;9675;51.538;6.728;2023-04-07T15:28:51;11.30;99.90
19085;DHT22;9675;51.538;6.728;2023-04-07T15:31:18;11.30;99.90
19085;DHT22;9675;51.538;6.728;2023-04-07T15:33:46;11.30;99.90
19085;DHT22;9675;51.538;6.728;2023-04-07T15:36:13;11.30;99.90
19085;DHT22;9675;51.538;6.728;2023-04-07T15:38:40;11.30;99.90
19085;DHT22;9675;51.538;6.728;2023-04-07T15:41:13;11.30;99.90
19085;DHT22;9675;51.538;6.728;2023-04-07T15:43:41;11.30;99.90
19085;DHT22;9675;51.538;6.728;2023-04-07T15:46:08;11.30;99.90
19085;DHT22;9675;51.538;6.728;2023-04-07T15:48:35;11.30;99.90
19085;DHT22;9675;51.538;6.728;2023-04-07T15:51:03;11.30;99.90
19085;DHT22;9675;51.538;6.728;2023-04-07T15:53:30;11.30;99.90
19085;DHT22;9675;51.538;6.728;2023-04-07T15:55:57;11.30;99.90
19085;DHT22;9675;51.538;6.728;2023-04-07T15:58:25;11.30;99.90